sensor_id;sensor_type;location;lat;lon;timestamp;P1;durP1;ratioP1;P2;durP2;ratioP2
23519;SDS011;11936;50.820;4.336;2023-01-28T00:01:55;11.32;;;9.80;;
23519;SDS011;11936;50.820;4.336;2023-01-28T00:04:20;12.65;;;9.93;;
23519;SDS011;11936;50.820;4.336;2023-01-28T00:06:46;10.90;;;9.25;;
23519;SDS011;11936;50.820;4.336;2023-01-28T00:09:11;11.38;;;9.48;;
23519;SDS011;11936;50.820;4.336;2023-01-28T00:11:37;10.82;;;9.73;;
23519;SDS011;11936;50.820;4.336;2023-01-28T00:14:03;10.60;;;8.80;;
23519;SDS011;11936;50.820;4.336;2023-01-28T00:16:28;12.13;;;9.98;;
23519;SDS011;11936;50.820;4.336;2023-01-28T00:18:56;11.43;;;9.63;;
23519;SDS011;11936;50.820;4.336;2023-01-28T00:21:22;10.45;;;9.32;;
23519;SDS011;11936;50.820;4.336;2023-01-28T00:23:52;12.02;;;9.73;;
23519;SDS011;11936;50.820;4.336;2023-01-28T00:26:19;11.20;;;10.02;;
23519;SDS011;11936;50.820;4.336;2023-01-28T00:28:45;11.50;;;10.23;;
23519;SDS011;11936;50.820;4.336;2023-01-28T00:31:19;11.70;;;9.63;;
23519;SDS011;11936;50.820;4.336;2023-01-28T00:33:46;11.40;;;10.02;;
23519;SDS011;11936;50.820;4.336;2023-01-28T00:36:13;11.02;;;9.30;;
23519;SDS011;11936;50.820;4.336;2023-01-28T00:38:40;11.10;;;10.00;;
23519;SDS011;11936;50.820;4.336;2023-01-28T00:41:07;10.82;;;9.70;;
23519;SDS011;11936;50.820;4.336;2023-01-28T00:43:34;10.90;;;9.52;;
23519;SDS011;11936;50.820;4.336;2023-01-28T00:46:00;11.60;;;10.40;;
23519;SDS011;11936;50.820;4.336;2023-01-28T00:48:25;11.38;;;10.18;;
23519;SDS011;11936;50.820;4.336;2023-01-28T00:50:51;11.50;;;10.30;;
23519;SDS011;11936;50.820;4.336;2023-01-28T00:53:16;12.02;;;10.13;;
23519;SDS011;11936;50.820;4.336;2023-01-28T00:55:42;12.38;;;10.68;;
23519;SDS011;11936;50.820;4.336;2023-01-28T00:58:07;11.00;;;9.52;;
23519;SDS011;11936;50.820;4.336;2023-01-28T01:00:33;14.40;;;9.88;;
23519;SDS011;11936;50.820;4.336;2023-01-28T01:02:59;11.05;;;9.75;;
23519;SDS011;11936;50.820;4.336;2023-01-28T01:05:24;14.73;;;10.13;;
23519;SDS011;11936;50.820;4.336;2023-01-28T01:07:50;11.73;;;10.23;;
23519;SDS011;11936;50.820;4.336;2023-01-28T01:10:17;11.68;;;9.43;;
23519;SDS011;11936;50.820;4.336;2023-01-28T01:12:47;10.38;;;9.27;;
23519;SDS011;11936;50.820;4.336;2023-01-28T01:15:14;10.40;;;9.30;;
23519;SDS011;11936;50.820;4.336;2023-01-28T01:17:42;9.63;;;8.57;;
23519;SDS011;11936;50.820;4.336;2023-01-28T01:20:13;9.98;;;8.88;;
23519;SDS011;11936;50.820;4.336;2023-01-28T01:22:41;9.43;;;8.40;;
23519;SDS011;11936;50.820;4.336;2023-01-28T01:25:07;9.90;;;8.90;;
23519;SDS011;11936;50.820;4.336;2023-01-28T01:27:33;10.45;;;9.35;;
23519;SDS011;11936;50.820;4.336;2023-01-28T01:29:58;10.73;;;9.13;;
23519;SDS011;11936;50.820;4.336;2023-01-28T01:32:24;9.38;;;8.38;;
23519;SDS011;11936;50.820;4.336;2023-01-28T01:34:54;9.48;;;8.30;;
23519;SDS011;11936;50.820;4.336;2023-01-28T01:37:19;9.98;;;8.45;;
23519;SDS011;11936;50.820;4.336;2023-01-28T01:39:45;9.43;;;8.43;;
23519;SDS011;11936;50.820;4.336;2023-01-28T01:42:11;9.70;;;8.63;;
23519;SDS011;11936;50.820;4.336;2023-01-28T01:52:54;11.05;;;9.88;;
23519;SDS011;11936;50.820;4.336;2023-01-28T01:55:23;13.20;;;10.77;;
23519;SDS011;11936;50.820;4.336;2023-01-28T01:57:58;14.35;;;10.25;;
23519;SDS011;11936;50.820;4.336;2023-01-28T02:00:30;16.10;;;10.80;;
23519;SDS011;11936;50.820;4.336;2023-01-28T02:02:55;12.50;;;10.68;;
23519;SDS011;11936;50.820;4.336;2023-01-28T02:05:22;12.27;;;10.55;;
23519;SDS011;11936;50.820;4.336;2023-01-28T02:07:49;13.23;;;11.27;;
23519;SDS011;11936;50.820;4.336;2023-01-28T02:10:19;11.63;;;10.38;;
23519;SDS011;11936;50.820;4.336;2023-01-28T02:12:50;12.05;;;9.93;;
23519;SDS011;11936;50.820;4.336;2023-01-28T02:15:20;11.32;;;10.07;;
23519;SDS011;11936;50.820;4.336;2023-01-28T02:17:49;14.10;;;10.98;;
23519;SDS011;11936;50.820;4.336;2023-01-28T02:20:18;12.82;;;10.70;;
23519;SDS011;11936;50.820;4.336;2023-01-28T02:31:22;12.93;;;10.35;;
23519;SDS011;11936;50.820;4.336;2023-01-28T02:36:40;12.63;;;10.32;;
23519;SDS011;11936;50.820;4.336;2023-01-28T02:39:15;13.52;;;11.48;;
23519;SDS011;11936;50.820;4.336;2023-01-28T02:42:27;14.88;;;11.27;;
23519;SDS011;11936;50.820;4.336;2023-01-28T02:44:41;13.82;;;11.70;;
23519;SDS011;11936;50.820;4.336;2023-01-28T02:47:10;14.18;;;11.65;;
23519;SDS011;11936;50.820;4.336;2023-01-28T02:49:56;11.75;;;9.85;;
23519;SDS011;11936;50.820;4.336;2023-01-28T02:52:40;14.38;;;11.43;;
23519;SDS011;11936;50.820;4.336;2023-01-28T03:03:48;15.07;;;11.73;;
23519;SDS011;11936;50.820;4.336;2023-01-28T03:06:19;14.38;;;11.40;;
23519;SDS011;11936;50.820;4.336;2023-01-28T03:08:55;14.13;;;11.98;;
23519;SDS011;11936;50.820;4.336;2023-01-28T03:11:45;15.80;;;11.95;;
23519;SDS011;11936;50.820;4.336;2023-01-28T03:14:56;14.02;;;11.18;;
23519;SDS011;11936;50.820;4.336;2023-01-28T03:17:56;13.80;;;10.63;;
23519;SDS011;11936;50.820;4.336;2023-01-28T03:26:44;12.88;;;10.73;;
23519;SDS011;11936;50.820;4.336;2023-01-28T03:29:36;14.25;;;10.68;;
23519;SDS011;11936;50.820;4.336;2023-01-28T03:32:24;14.80;;;11.65;;
23519;SDS011;11936;50.820;4.336;2023-01-28T03:35:08;14.50;;;11.48;;
23519;SDS011;11936;50.820;4.336;2023-01-28T03:37:56;17.80;;;12.48;;
23519;SDS011;11936;50.820;4.336;2023-01-28T03:40:24;15.73;;;11.63;;
23519;SDS011;11936;50.820;4.336;2023-01-28T03:42:52;14.38;;;10.93;;
23519;SDS011;11936;50.820;4.336;2023-01-28T03:45:18;13.30;;;10.70;;
23519;SDS011;11936;50.820;4.336;2023-01-28T03:47:45;14.05;;;11.68;;
23519;SDS011;11936;50.820;4.336;2023-01-28T03:50:11;12.80;;;10.88;;
23519;SDS011;11936;50.820;4.336;2023-01-28T03:52:37;13.63;;;10.80;;
23519;SDS011;11936;50.820;4.336;2023-01-28T03:55:03;14.52;;;11.38;;
23519;SDS011;11936;50.820;4.336;2023-01-28T03:57:37;13.73;;;11.13;;
23519;SDS011;11936;50.820;4.336;2023-01-28T04:00:03;12.70;;;10.73;;
23519;SDS011;11936;50.820;4.336;2023-01-28T04:02:29;14.00;;;11.57;;
23519;SDS011;11936;50.820;4.336;2023-01-28T04:04:55;13.70;;;11.15;;
23519;SDS011;11936;50.820;4.336;2023-01-28T04:07:22;15.07;;;11.07;;
23519;SDS011;11936;50.820;4.336;2023-01-28T04:09:48;15.85;;;10.70;;
23519;SDS011;11936;50.820;4.336;2023-01-28T04:12:14;13.68;;;11.15;;
23519;SDS011;11936;50.820;4.336;2023-01-28T04:14:39;14.43;;;11.05;;
23519;SDS011;11936;50.820;4.336;2023-01-28T04:17:05;15.80;;;11.80;;
23519;SDS011;11936;50.820;4.336;2023-01-28T04:19:32;15.25;;;10.35;;
23519;SDS011;11936;50.820;4.336;2023-01-28T04:22:02;14.07;;;10.25;;
23519;SDS011;11936;50.820;4.336;2023-01-28T04:24:29;12.65;;;10.27;;
23519;SDS011;11936;50.820;4.336;2023-01-28T04:26:54;13.63;;;9.95;;
23519;SDS011;11936;50.820;4.336;2023-01-28T04:29:20;13.38;;;10.20;;
23519;SDS011;11936;50.820;4.336;2023-01-28T04:31:45;12.75;;;10.80;;
23519;SDS011;11936;50.820;4.336;2023-01-28T04:34:11;12.23;;;9.30;;
23519;SDS011;11936;50.820;4.336;2023-01-28T04:36:36;12.20;;;9.93;;
23519;SDS011;11936;50.820;4.336;2023-01-28T04:39:02;16.30;;;9.98;;
23519;SDS011;11936;50.820;4.336;2023-01-28T04:41:28;13.55;;;9.85;;
23519;SDS011;11936;50.820;4.336;2023-01-28T04:43:53;12.73;;;10.50;;
23519;SDS011;11936;50.820;4.336;2023-01-28T04:46:19;13.25;;;9.85;;
23519;SDS011;11936;50.820;4.336;2023-01-28T04:48:45;10.73;;;8.75;;
23519;SDS011;11936;50.820;4.336;2023-01-28T04:51:11;13.50;;;10.48;;
23519;SDS011;11936;50.820;4.336;2023-01-28T04:53:36;13.07;;;10.55;;
23519;SDS011;11936;50.820;4.336;2023-01-28T04:56:02;11.82;;;9.45;;
23519;SDS011;11936;50.820;4.336;2023-01-28T04:58:28;13.82;;;10.82;;
23519;SDS011;11936;50.820;4.336;2023-01-28T05:00:56;13.63;;;10.90;;
23519;SDS011;11936;50.820;4.336;2023-01-28T05:03:23;18.85;;;10.65;;
23519;SDS011;11936;50.820;4.336;2023-01-28T05:05:49;13.25;;;10.75;;
23519;SDS011;11936;50.820;4.336;2023-01-28T05:08:15;15.45;;;11.05;;
23519;SDS011;11936;50.820;4.336;2023-01-28T05:10:41;13.52;;;11.40;;
23519;SDS011;11936;50.820;4.336;2023-01-28T05:13:07;15.85;;;11.52;;
23519;SDS011;11936;50.820;4.336;2023-01-28T05:15:33;15.25;;;11.38;;
23519;SDS011;11936;50.820;4.336;2023-01-28T05:18:01;14.85;;;11.35;;
23519;SDS011;11936;50.820;4.336;2023-01-28T05:20:27;14.55;;;11.13;;
23519;SDS011;11936;50.820;4.336;2023-01-28T05:22:53;13.55;;;10.95;;
23519;SDS011;11936;50.820;4.336;2023-01-28T05:25:18;13.52;;;10.88;;
23519;SDS011;11936;50.820;4.336;2023-01-28T05:27:48;14.35;;;11.55;;
23519;SDS011;11936;50.820;4.336;2023-01-28T05:30:15;13.38;;;11.18;;
23519;SDS011;11936;50.820;4.336;2023-01-28T05:32:41;15.18;;;11.63;;
23519;SDS011;11936;50.820;4.336;2023-01-28T05:35:07;14.50;;;10.80;;
23519;SDS011;11936;50.820;4.336;2023-01-28T05:37:36;15.00;;;11.10;;
23519;SDS011;11936;50.820;4.336;2023-01-28T05:40:02;13.25;;;11.48;;
23519;SDS011;11936;50.820;4.336;2023-01-28T05:42:28;13.50;;;10.88;;
23519;SDS011;11936;50.820;4.336;2023-01-28T05:44:53;16.75;;;11.25;;
23519;SDS011;11936;50.820;4.336;2023-01-28T05:47:19;15.82;;;11.77;;
23519;SDS011;11936;50.820;4.336;2023-01-28T05:49:44;13.38;;;10.75;;
23519;SDS011;11936;50.820;4.336;2023-01-28T05:52:10;12.52;;;10.32;;
23519;SDS011;11936;50.820;4.336;2023-01-28T05:54:36;13.60;;;10.65;;
23519;SDS011;11936;50.820;4.336;2023-01-28T05:57:02;15.27;;;10.50;;
23519;SDS011;11936;50.820;4.336;2023-01-28T05:59:27;12.35;;;9.68;;
23519;SDS011;11936;50.820;4.336;2023-01-28T06:01:53;11.73;;;10.25;;
23519;SDS011;11936;50.820;4.336;2023-01-28T06:04:18;13.80;;;10.52;;
23519;SDS011;11936;50.820;4.336;2023-01-28T06:06:44;12.50;;;10.18;;
23519;SDS011;11936;50.820;4.336;2023-01-28T06:09:10;13.18;;;10.85;;
23519;SDS011;11936;50.820;4.336;2023-01-28T06:11:36;12.60;;;10.65;;
23519;SDS011;11936;50.820;4.336;2023-01-28T06:14:01;12.27;;;10.00;;
23519;SDS011;11936;50.820;4.336;2023-01-28T06:16:27;13.02;;;11.02;;
23519;SDS011;11936;50.820;4.336;2023-01-28T06:18:52;12.18;;;10.57;;
23519;SDS011;11936;50.820;4.336;2023-01-28T06:21:18;11.77;;;9.73;;
23519;SDS011;11936;50.820;4.336;2023-01-28T06:23:43;11.98;;;10.00;;
23519;SDS011;11936;50.820;4.336;2023-01-28T06:26:09;12.88;;;10.45;;
23519;SDS011;11936;50.820;4.336;2023-01-28T06:28:34;13.55;;;10.60;;
23519;SDS011;11936;50.820;4.336;2023-01-28T06:31:00;15.70;;;10.60;;
23519;SDS011;11936;50.820;4.336;2023-01-28T06:33:26;12.93;;;11.00;;
23519;SDS011;11936;50.820;4.336;2023-01-28T06:35:53;12.75;;;10.05;;
23519;SDS011;11936;50.820;4.336;2023-01-28T06:38:18;12.90;;;9.73;;
23519;SDS011;11936;50.820;4.336;2023-01-28T06:40:45;11.60;;;9.60;;
23519;SDS011;11936;50.820;4.336;2023-01-28T06:43:15;12.82;;;10.50;;
23519;SDS011;11936;50.820;4.336;2023-01-28T06:45:43;11.83;;;10.10;;
23519;SDS011;11936;50.820;4.336;2023-01-28T06:48:08;13.80;;;11.15;;
23519;SDS011;11936;50.820;4.336;2023-01-28T06:50:34;11.00;;;9.40;;
23519;SDS011;11936;50.820;4.336;2023-01-28T06:52:59;11.77;;;9.65;;
23519;SDS011;11936;50.820;4.336;2023-01-28T06:55:25;11.18;;;9.57;;
23519;SDS011;11936;50.820;4.336;2023-01-28T06:57:51;12.15;;;9.48;;
23519;SDS011;11936;50.820;4.336;2023-01-28T07:00:16;10.90;;;9.27;;
23519;SDS011;11936;50.820;4.336;2023-01-28T07:02:42;11.35;;;9.15;;
23519;SDS011;11936;50.820;4.336;2023-01-28T07:05:11;12.27;;;10.27;;
23519;SDS011;11936;50.820;4.336;2023-01-28T07:07:37;11.55;;;9.82;;
23519;SDS011;11936;50.820;4.336;2023-01-28T07:10:02;12.55;;;10.45;;
23519;SDS011;11936;50.820;4.336;2023-01-28T07:12:29;12.13;;;10.20;;
23519;SDS011;11936;50.820;4.336;2023-01-28T07:14:54;12.68;;;10.32;;
23519;SDS011;11936;50.820;4.336;2023-01-28T07:17:20;11.93;;;9.68;;
23519;SDS011;11936;50.820;4.336;2023-01-28T07:19:45;12.18;;;10.05;;
23519;SDS011;11936;50.820;4.336;2023-01-28T07:22:11;13.27;;;10.05;;
23519;SDS011;11936;50.820;4.336;2023-01-28T07:24:36;9.73;;;8.73;;
23519;SDS011;11936;50.820;4.336;2023-01-28T07:27:02;12.25;;;10.15;;
23519;SDS011;11936;50.820;4.336;2023-01-28T07:29:28;11.93;;;10.30;;
23519;SDS011;11936;50.820;4.336;2023-01-28T07:31:54;15.52;;;10.82;;
23519;SDS011;11936;50.820;4.336;2023-01-28T07:34:19;13.50;;;9.55;;
23519;SDS011;11936;50.820;4.336;2023-01-28T07:36:45;11.98;;;9.52;;
23519;SDS011;11936;50.820;4.336;2023-01-28T07:39:10;12.50;;;9.80;;
23519;SDS011;11936;50.820;4.336;2023-01-28T07:41:36;11.45;;;10.07;;
23519;SDS011;11936;50.820;4.336;2023-01-28T07:44:02;14.35;;;10.25;;
23519;SDS011;11936;50.820;4.336;2023-01-28T07:46:27;11.32;;;9.80;;
23519;SDS011;11936;50.820;4.336;2023-01-28T07:48:55;13.05;;;9.57;;
23519;SDS011;11936;50.820;4.336;2023-01-28T07:51:20;13.48;;;10.43;;
23519;SDS011;11936;50.820;4.336;2023-01-28T07:53:46;21.58;;;15.88;;
23519;SDS011;11936;50.820;4.336;2023-01-28T07:56:12;14.77;;;12.23;;
23519;SDS011;11936;50.820;4.336;2023-01-28T07:58:38;19.17;;;11.98;;
23519;SDS011;11936;50.820;4.336;2023-01-28T08:01:03;13.90;;;10.52;;
23519;SDS011;11936;50.820;4.336;2023-01-28T08:03:29;12.68;;;10.60;;
23519;SDS011;11936;50.820;4.336;2023-01-28T08:05:55;16.83;;;11.35;;
23519;SDS011;11936;50.820;4.336;2023-01-28T08:08:21;12.45;;;9.65;;
23519;SDS011;11936;50.820;4.336;2023-01-28T08:10:48;17.05;;;10.55;;
23519;SDS011;11936;50.820;4.336;2023-01-28T08:13:14;12.80;;;9.50;;
23519;SDS011;11936;50.820;4.336;2023-01-28T08:15:41;12.15;;;10.10;;
23519;SDS011;11936;50.820;4.336;2023-01-28T08:18:08;13.93;;;9.38;;
23519;SDS011;11936;50.820;4.336;2023-01-28T08:20:37;14.07;;;10.68;;
23519;SDS011;11936;50.820;4.336;2023-01-28T08:23:04;11.98;;;9.60;;
23519;SDS011;11936;50.820;4.336;2023-01-28T08:25:30;15.10;;;10.82;;
23519;SDS011;11936;50.820;4.336;2023-01-28T08:27:55;13.02;;;9.77;;
23519;SDS011;11936;50.820;4.336;2023-01-28T08:30:21;13.25;;;9.77;;
23519;SDS011;11936;50.820;4.336;2023-01-28T08:32:47;14.15;;;10.43;;
23519;SDS011;11936;50.820;4.336;2023-01-28T08:35:12;13.73;;;10.85;;
23519;SDS011;11936;50.820;4.336;2023-01-28T08:37:38;12.77;;;10.52;;
23519;SDS011;11936;50.820;4.336;2023-01-28T08:40:03;15.20;;;10.32;;
23519;SDS011;11936;50.820;4.336;2023-01-28T08:42:30;12.30;;;10.23;;
23519;SDS011;11936;50.820;4.336;2023-01-28T08:44:55;14.73;;;10.52;;
23519;SDS011;11936;50.820;4.336;2023-01-28T08:47:21;14.52;;;12.05;;
23519;SDS011;11936;50.820;4.336;2023-01-28T08:49:46;16.95;;;11.00;;
23519;SDS011;11936;50.820;4.336;2023-01-28T08:52:12;13.75;;;10.40;;
23519;SDS011;11936;50.820;4.336;2023-01-28T08:54:38;14.30;;;11.05;;
23519;SDS011;11936;50.820;4.336;2023-01-28T08:57:03;15.40;;;11.10;;
23519;SDS011;11936;50.820;4.336;2023-01-28T08:59:29;14.95;;;12.05;;
23519;SDS011;11936;50.820;4.336;2023-01-28T09:01:54;13.23;;;11.10;;
23519;SDS011;11936;50.820;4.336;2023-01-28T09:04:20;17.20;;;11.02;;
23519;SDS011;11936;50.820;4.336;2023-01-28T09:06:45;15.13;;;11.07;;
23519;SDS011;11936;50.820;4.336;2023-01-28T09:09:11;13.40;;;11.30;;
23519;SDS011;11936;50.820;4.336;2023-01-28T09:11:37;13.90;;;11.80;;
23519;SDS011;11936;50.820;4.336;2023-01-28T09:14:02;16.08;;;11.75;;
23519;SDS011;11936;50.820;4.336;2023-01-28T09:16:28;17.13;;;12.85;;
23519;SDS011;11936;50.820;4.336;2023-01-28T09:18:53;16.77;;;12.38;;
23519;SDS011;11936;50.820;4.336;2023-01-28T09:21:19;14.45;;;11.15;;
23519;SDS011;11936;50.820;4.336;2023-01-28T09:23:45;15.80;;;11.63;;
23519;SDS011;11936;50.820;4.336;2023-01-28T09:26:11;14.35;;;11.80;;
23519;SDS011;11936;50.820;4.336;2023-01-28T09:28:37;15.85;;;11.85;;
23519;SDS011;11936;50.820;4.336;2023-01-28T09:31:05;18.45;;;13.23;;
23519;SDS011;11936;50.820;4.336;2023-01-28T09:33:33;19.90;;;12.15;;
23519;SDS011;11936;50.820;4.336;2023-01-28T09:36:00;16.13;;;12.50;;
23519;SDS011;11936;50.820;4.336;2023-01-28T09:38:27;15.45;;;11.90;;
23519;SDS011;11936;50.820;4.336;2023-01-28T09:40:54;16.33;;;12.15;;
23519;SDS011;11936;50.820;4.336;2023-01-28T09:43:33;17.75;;;12.07;;
23519;SDS011;11936;50.820;4.336;2023-01-28T09:46:01;15.27;;;12.80;;
23519;SDS011;11936;50.820;4.336;2023-01-28T09:48:31;15.60;;;12.63;;
23519;SDS011;11936;50.820;4.336;2023-01-28T09:51:02;14.93;;;12.35;;
23519;SDS011;11936;50.820;4.336;2023-01-28T09:53:32;16.05;;;11.52;;
23519;SDS011;11936;50.820;4.336;2023-01-28T09:56:04;16.73;;;12.57;;
23519;SDS011;11936;50.820;4.336;2023-01-28T09:58:40;17.33;;;13.20;;
23519;SDS011;11936;50.820;4.336;2023-01-28T10:04:21;18.67;;;13.55;;
23519;SDS011;11936;50.820;4.336;2023-01-28T10:07:05;20.67;;;14.65;;
23519;SDS011;11936;50.820;4.336;2023-01-28T10:18:15;15.85;;;12.60;;
23519;SDS011;11936;50.820;4.336;2023-01-28T10:20:56;19.45;;;13.23;;
23519;SDS011;11936;50.820;4.336;2023-01-28T10:23:31;17.77;;;13.30;;
23519;SDS011;11936;50.820;4.336;2023-01-28T10:26:16;18.52;;;14.35;;
23519;SDS011;11936;50.820;4.336;2023-01-28T10:28:57;19.42;;;14.68;;
23519;SDS011;11936;50.820;4.336;2023-01-28T10:31:33;20.10;;;13.02;;
23519;SDS011;11936;50.820;4.336;2023-01-28T10:34:03;17.63;;;13.52;;
23519;SDS011;11936;50.820;4.336;2023-01-28T10:36:29;21.52;;;13.75;;
23519;SDS011;11936;50.820;4.336;2023-01-28T10:38:55;19.65;;;13.98;;
23519;SDS011;11936;50.820;4.336;2023-01-28T10:41:21;17.55;;;13.95;;
23519;SDS011;11936;50.820;4.336;2023-01-28T10:43:47;21.77;;;14.25;;
23519;SDS011;11936;50.820;4.336;2023-01-28T10:48:46;18.75;;;14.48;;
23519;SDS011;11936;50.820;4.336;2023-01-28T10:51:12;17.43;;;13.57;;
23519;SDS011;11936;50.820;4.336;2023-01-28T10:56:16;16.88;;;13.35;;
23519;SDS011;11936;50.820;4.336;2023-01-28T10:59:02;23.73;;;13.35;;
23519;SDS011;11936;50.820;4.336;2023-01-28T11:01:46;16.45;;;12.40;;
23519;SDS011;11936;50.820;4.336;2023-01-28T11:04:14;19.35;;;14.23;;
23519;SDS011;11936;50.820;4.336;2023-01-28T11:09:46;18.98;;;14.10;;
23519;SDS011;11936;50.820;4.336;2023-01-28T11:14:53;22.67;;;14.52;;
23519;SDS011;11936;50.820;4.336;2023-01-28T11:17:24;18.73;;;13.43;;
23519;SDS011;11936;50.820;4.336;2023-01-28T11:19:57;27.38;;;14.32;;
23519;SDS011;11936;50.820;4.336;2023-01-28T11:22:32;20.40;;;12.95;;
23519;SDS011;11936;50.820;4.336;2023-01-28T11:25:03;18.88;;;12.35;;
23519;SDS011;11936;50.820;4.336;2023-01-28T11:27:39;20.90;;;13.65;;
23519;SDS011;11936;50.820;4.336;2023-01-28T11:30:28;16.27;;;12.40;;
23519;SDS011;11936;50.820;4.336;2023-01-28T11:33:11;19.73;;;13.10;;
23519;SDS011;11936;50.820;4.336;2023-01-28T11:35:50;16.27;;;13.02;;
23519;SDS011;11936;50.820;4.336;2023-01-28T11:38:29;16.38;;;13.00;;
23519;SDS011;11936;50.820;4.336;2023-01-28T11:40:55;16.58;;;12.52;;
23519;SDS011;11936;50.820;4.336;2023-01-28T11:43:29;14.35;;;11.63;;
23519;SDS011;11936;50.820;4.336;2023-01-28T11:51:46;14.55;;;10.77;;
23519;SDS011;11936;50.820;4.336;2023-01-28T11:57:03;16.48;;;12.63;;
23519;SDS011;11936;50.820;4.336;2023-01-28T12:05:36;16.50;;;12.70;;
23519;SDS011;11936;50.820;4.336;2023-01-28T12:08:33;16.88;;;13.07;;
23519;SDS011;11936;50.820;4.336;2023-01-28T12:17:11;18.20;;;12.23;;
23519;SDS011;11936;50.820;4.336;2023-01-28T12:28:07;13.57;;;10.27;;
23519;SDS011;11936;50.820;4.336;2023-01-28T12:30:59;16.73;;;11.48;;
23519;SDS011;11936;50.820;4.336;2023-01-28T12:42:09;16.88;;;12.07;;
23519;SDS011;11936;50.820;4.336;2023-01-28T12:44:39;19.38;;;11.60;;
23519;SDS011;11936;50.820;4.336;2023-01-28T12:47:12;15.88;;;11.95;;
23519;SDS011;11936;50.820;4.336;2023-01-28T12:52:14;15.80;;;12.05;;
23519;SDS011;11936;50.820;4.336;2023-01-28T12:57:57;15.32;;;11.25;;
23519;SDS011;11936;50.820;4.336;2023-01-28T13:10:47;17.63;;;12.38;;
23519;SDS011;11936;50.820;4.336;2023-01-28T13:13:55;15.18;;;11.23;;
23519;SDS011;11936;50.820;4.336;2023-01-28T13:16:03;15.98;;;12.07;;
23519;SDS011;11936;50.820;4.336;2023-01-28T13:20:57;17.42;;;11.40;;
23519;SDS011;11936;50.820;4.336;2023-01-28T13:23:45;17.17;;;12.13;;
23519;SDS011;11936;50.820;4.336;2023-01-28T13:28:42;20.33;;;11.80;;
23519;SDS011;11936;50.820;4.336;2023-01-28T13:31:12;21.45;;;11.43;;
23519;SDS011;11936;50.820;4.336;2023-01-28T13:33:45;14.93;;;11.35;;
23519;SDS011;11936;50.820;4.336;2023-01-28T13:36:24;16.37;;;11.90;;
23519;SDS011;11936;50.820;4.336;2023-01-28T13:39:00;13.80;;;11.43;;
23519;SDS011;11936;50.820;4.336;2023-01-28T13:41:47;19.50;;;12.50;;
23519;SDS011;11936;50.820;4.336;2023-01-28T13:46:49;13.85;;;11.35;;
23519;SDS011;11936;50.820;4.336;2023-01-28T13:49:16;16.27;;;11.93;;
23519;SDS011;11936;50.820;4.336;2023-01-28T13:51:55;17.65;;;11.95;;
23519;SDS011;11936;50.820;4.336;2023-01-28T13:54:33;16.90;;;11.88;;
23519;SDS011;11936;50.820;4.336;2023-01-28T14:07:44;17.33;;;12.32;;
23519;SDS011;11936;50.820;4.336;2023-01-28T14:10:36;16.50;;;12.27;;
23519;SDS011;11936;50.820;4.336;2023-01-28T14:13:31;17.63;;;12.63;;
23519;SDS011;11936;50.820;4.336;2023-01-28T14:19:01;20.05;;;12.65;;
23519;SDS011;11936;50.820;4.336;2023-01-28T14:21:27;16.52;;;13.02;;
23519;SDS011;11936;50.820;4.336;2023-01-28T14:23:58;21.65;;;12.70;;
23519;SDS011;11936;50.820;4.336;2023-01-28T14:31:43;15.32;;;12.07;;
23519;SDS011;11936;50.820;4.336;2023-01-28T14:34:11;20.00;;;12.77;;
23519;SDS011;11936;50.820;4.336;2023-01-28T14:36:48;14.57;;;12.00;;
23519;SDS011;11936;50.820;4.336;2023-01-28T14:39:20;17.63;;;13.25;;
23519;SDS011;11936;50.820;4.336;2023-01-28T14:41:51;24.85;;;14.07;;
23519;SDS011;11936;50.820;4.336;2023-01-28T14:44:24;16.33;;;12.95;;
23519;SDS011;11936;50.820;4.336;2023-01-28T14:46:56;19.25;;;12.80;;
23519;SDS011;11936;50.820;4.336;2023-01-28T15:00:20;19.77;;;12.98;;
23519;SDS011;11936;50.820;4.336;2023-01-28T15:02:51;20.83;;;12.52;;
23519;SDS011;11936;50.820;4.336;2023-01-28T15:05:27;20.73;;;14.50;;
23519;SDS011;11936;50.820;4.336;2023-01-28T15:07:53;17.92;;;13.05;;
23519;SDS011;11936;50.820;4.336;2023-01-28T15:12:51;21.80;;;14.05;;
23519;SDS011;11936;50.820;4.336;2023-01-28T15:15:39;18.48;;;13.07;;
23519;SDS011;11936;50.820;4.336;2023-01-28T15:18:13;18.52;;;13.07;;
23519;SDS011;11936;50.820;4.336;2023-01-28T15:20:46;22.75;;;12.98;;
23519;SDS011;11936;50.820;4.336;2023-01-28T15:23:16;19.73;;;13.52;;
23519;SDS011;11936;50.820;4.336;2023-01-28T15:25:47;21.30;;;13.85;;
23519;SDS011;11936;50.820;4.336;2023-01-28T15:28:19;19.00;;;13.70;;
23519;SDS011;11936;50.820;4.336;2023-01-28T15:30:51;21.67;;;14.75;;
23519;SDS011;11936;50.820;4.336;2023-01-28T15:33:19;19.48;;;14.02;;
23519;SDS011;11936;50.820;4.336;2023-01-28T15:38:15;24.33;;;14.05;;
23519;SDS011;11936;50.820;4.336;2023-01-28T15:40:45;17.90;;;13.23;;
23519;SDS011;11936;50.820;4.336;2023-01-28T15:43:47;18.50;;;13.40;;
23519;SDS011;11936;50.820;4.336;2023-01-28T15:46:10;17.83;;;13.35;;
23519;SDS011;11936;50.820;4.336;2023-01-28T15:48:37;20.00;;;13.13;;
23519;SDS011;11936;50.820;4.336;2023-01-28T15:51:08;20.90;;;12.63;;
23519;SDS011;11936;50.820;4.336;2023-01-28T15:53:44;18.63;;;13.55;;
23519;SDS011;11936;50.820;4.336;2023-01-28T15:56:13;19.83;;;13.70;;
23519;SDS011;11936;50.820;4.336;2023-01-28T15:58:39;23.27;;;15.00;;
23519;SDS011;11936;50.820;4.336;2023-01-28T16:03:35;16.85;;;12.60;;
23519;SDS011;11936;50.820;4.336;2023-01-28T16:06:08;19.60;;;14.15;;
23519;SDS011;11936;50.820;4.336;2023-01-28T16:11:05;21.33;;;15.30;;
23519;SDS011;11936;50.820;4.336;2023-01-28T16:13:33;24.17;;;14.52;;
23519;SDS011;11936;50.820;4.336;2023-01-28T16:16:00;23.33;;;15.55;;
23519;SDS011;11936;50.820;4.336;2023-01-28T16:18:29;20.33;;;14.93;;
23519;SDS011;11936;50.820;4.336;2023-01-28T16:21:05;19.60;;;14.13;;
23519;SDS011;11936;50.820;4.336;2023-01-28T16:23:32;23.48;;;15.95;;
23519;SDS011;11936;50.820;4.336;2023-01-28T16:26:02;22.17;;;16.70;;
23519;SDS011;11936;50.820;4.336;2023-01-28T16:28:49;25.52;;;15.85;;
23519;SDS011;11936;50.820;4.336;2023-01-28T16:31:15;21.98;;;15.75;;
23519;SDS011;11936;50.820;4.336;2023-01-28T16:33:42;22.80;;;15.45;;
23519;SDS011;11936;50.820;4.336;2023-01-28T16:36:11;26.30;;;16.70;;
23519;SDS011;11936;50.820;4.336;2023-01-28T16:38:38;23.38;;;15.00;;
23519;SDS011;11936;50.820;4.336;2023-01-28T16:41:10;22.55;;;15.93;;
23519;SDS011;11936;50.820;4.336;2023-01-28T16:43:37;19.92;;;15.43;;
23519;SDS011;11936;50.820;4.336;2023-01-28T16:46:03;22.55;;;16.13;;
23519;SDS011;11936;50.820;4.336;2023-01-28T16:48:28;22.70;;;16.27;;
23519;SDS011;11936;50.820;4.336;2023-01-28T16:50:54;24.33;;;16.58;;
23519;SDS011;11936;50.820;4.336;2023-01-28T16:53:20;22.67;;;15.60;;
23519;SDS011;11936;50.820;4.336;2023-01-28T16:55:52;19.92;;;14.65;;
23519;SDS011;11936;50.820;4.336;2023-01-28T16:58:18;21.17;;;15.93;;
23519;SDS011;11936;50.820;4.336;2023-01-28T17:00:47;20.30;;;13.68;;
23519;SDS011;11936;50.820;4.336;2023-01-28T17:03:13;22.10;;;15.73;;
23519;SDS011;11936;50.820;4.336;2023-01-28T17:05:38;19.45;;;13.80;;
23519;SDS011;11936;50.820;4.336;2023-01-28T17:08:04;21.55;;;14.90;;
23519;SDS011;11936;50.820;4.336;2023-01-28T17:10:30;22.02;;;14.93;;
23519;SDS011;11936;50.820;4.336;2023-01-28T17:12:56;21.02;;;15.13;;
23519;SDS011;11936;50.820;4.336;2023-01-28T17:15:22;21.73;;;15.82;;